createdAt,value
2023-01-19T00:00:34.335Z,50.62
2023-01-19T00:01:37.153Z,50.30
2023-01-19T00:02:39.162Z,50.42
2023-01-19T00:03:42.351Z,50.48
2023-01-19T00:04:44.107Z,50.48
2023-01-19T00:05:46.973Z,50.36
2023-01-19T00:06:50.006Z,50.23
2023-01-19T00:07:51.855Z,50.30
2023-01-19T00:08:54.534Z,50.54
2023-01-19T00:09:56.251Z,50.08
2023-01-19T00:10:58.974Z,50.46
2023-01-19T00:12:01.712Z,50.23
2023-01-19T00:13:03.649Z,50.21
2023-01-19T00:14:07.853Z,50.74
2023-01-19T00:15:10.541Z,50.27
2023-01-19T00:16:13.361Z,50.16
2023-01-19T00:17:16.064Z,50.51
2023-01-19T00:18:17.760Z,50.23
2023-01-19T00:19:20.440Z,50.03
2023-01-19T00:20:22.100Z,49.84
2023-01-19T00:21:26.868Z,49.96
2023-01-19T00:22:28.638Z,50.30
2023-01-19T00:23:31.274Z,49.96
2023-01-19T00:24:32.999Z,50.22
2023-01-19T00:25:35.829Z,49.53
2023-01-19T00:26:40.338Z,50.11
2023-01-19T00:27:42.047Z,50.45
2023-01-19T00:28:45.014Z,50.61
2023-01-19T00:29:48.131Z,50.25
2023-01-19T00:30:51.513Z,50.38
2023-01-19T00:31:54.155Z,50.57
2023-01-19T00:32:59.553Z,50.42
2023-01-19T00:34:02.455Z,50.90
2023-01-19T00:35:04.880Z,50.33
2023-01-19T00:36:08.323Z,50.39
2023-01-19T00:37:10.344Z,50.50
2023-01-19T00:38:13.484Z,50.57
2023-01-19T00:39:15.551Z,50.36
2023-01-19T00:40:19.073Z,50.61
2023-01-19T00:41:40.997Z,50.22
2023-01-19T00:42:45.247Z,50.55
2023-01-19T00:43:46.987Z,50.49
2023-01-19T00:44:51.023Z,50.78
2023-01-19T00:45:53.588Z,50.99
2023-01-19T00:46:56.419Z,50.72
2023-01-19T00:47:58.238Z,50.76
2023-01-19T00:49:00.938Z,50.78
2023-01-19T00:50:02.982Z,50.77
2023-01-19T00:51:06.112Z,51.22
2023-01-19T00:52:07.861Z,51.10
2023-01-19T00:53:10.556Z,50.90
2023-01-19T00:54:12.240Z,51.23
2023-01-19T00:55:16.355Z,51.59
2023-01-19T00:56:18.131Z,51.32
2023-01-19T00:57:20.901Z,51.52
2023-01-19T00:58:22.834Z,51.50
2023-01-19T00:59:26.691Z,51.32
2023-01-19T01:00:30.150Z,51.20
2023-01-19T01:01:45.446Z,51.12
2023-01-19T01:02:49.234Z,50.97
2023-01-19T01:03:53.405Z,51.45
2023-01-19T01:04:56.755Z,51.56
2023-01-19T01:05:59.589Z,51.32
2023-01-19T01:07:01.314Z,51.61
2023-01-19T01:08:04.154Z,51.38
2023-01-19T01:09:11.947Z,51.60
2023-01-19T01:10:18.019Z,51.54
2023-01-19T01:11:19.692Z,51.54
2023-01-19T01:12:22.395Z,51.59
2023-01-19T01:13:27.269Z,51.62
2023-01-19T01:14:30.547Z,51.60
2023-01-19T01:15:34.686Z,51.51
2023-01-19T01:16:37.411Z,51.72
2023-01-19T01:17:46.640Z,51.80
2023-01-19T01:18:49.372Z,51.61
2023-01-19T01:19:51.445Z,51.58
2023-01-19T01:20:56.234Z,51.71
2023-01-19T01:21:58.065Z,51.51
2023-01-19T01:23:01.154Z,51.74
2023-01-19T01:24:03.166Z,51.54
2023-01-19T01:25:06.679Z,51.89
2023-01-19T01:26:09.389Z,51.90
2023-01-19T01:27:11.862Z,51.71
2023-01-19T01:28:14.555Z,51.85
2023-01-19T01:29:16.340Z,51.74
2023-01-19T01:30:19.879Z,52.08
2023-01-19T01:31:23.038Z,52.32
2023-01-19T01:32:25.868Z,52.21
2023-01-19T01:33:41.092Z,52.03
2023-01-19T01:34:44.690Z,52.11
2023-01-19T01:35:46.397Z,52.19
2023-01-19T01:36:49.222Z,52.30
2023-01-19T01:37:50.913Z,52.18
2023-01-19T01:38:53.779Z,52.25
2023-01-19T01:39:55.541Z,52.30
2023-01-19T01:40:58.228Z,52.19
2023-01-19T01:41:59.987Z,52.26
2023-01-19T01:43:03.094Z,52.50
2023-01-19T01:44:38.171Z,52.16
2023-01-19T01:45:42.293Z,52.16
2023-01-19T01:46:45.466Z,52.24
2023-01-19T01:47:49.631Z,52.64
2023-01-19T01:48:55.143Z,52.49
2023-01-19T01:50:02.464Z,52.20
2023-01-19T01:51:25.202Z,52.85
2023-01-19T01:52:29.705Z,52.56
2023-01-19T01:53:33.213Z,52.77
2023-01-19T01:54:35.945Z,52.64
2023-01-19T01:55:41.277Z,52.70
2023-01-19T01:56:45.652Z,52.85
2023-01-19T01:57:51.388Z,52.55
2023-01-19T01:58:54.381Z,52.58
2023-01-19T01:59:58.044Z,52.48
2023-01-19T02:01:18.674Z,52.56
2023-01-19T02:02:41.948Z,52.46
2023-01-19T02:03:45.396Z,52.50
2023-01-19T02:04:48.880Z,52.46
2023-01-19T02:05:52.233Z,52.77
2023-01-19T02:07:12.453Z,52.82
2023-01-19T02:08:35.306Z,52.72
2023-01-19T02:09:56.133Z,52.65
2023-01-19T02:11:17.022Z,52.49
2023-01-19T02:12:37.340Z,52.75
2023-01-19T02:13:43.801Z,52.49
2023-01-19T02:14:45.514Z,52.70
2023-01-19T02:15:49.684Z,52.48
2023-01-19T02:16:51.604Z,52.89
2023-01-19T02:17:58.438Z,52.39
2023-01-19T02:19:01.344Z,52.48
2023-01-19T02:20:03.385Z,52.51
2023-01-19T02:21:11.464Z,52.80
2023-01-19T02:22:17.012Z,52.89
2023-01-19T02:23:44.240Z,52.87
2023-01-19T02:24:46.216Z,52.78
2023-01-19T02:25:49.228Z,52.29
2023-01-19T02:26:51.426Z,52.59
2023-01-19T02:27:54.630Z,52.17
2023-01-19T02:28:58.458Z,52.51
2023-01-19T02:30:03.662Z,52.20
2023-01-19T02:31:06.384Z,52.33
2023-01-19T02:32:09.333Z,52.24
2023-01-19T02:33:11.117Z,52.63
2023-01-19T02:34:16.325Z,52.81
2023-01-19T02:35:18.345Z,52.88
2023-01-19T02:36:24.663Z,52.95
2023-01-19T02:37:26.902Z,52.78
2023-01-19T02:38:29.782Z,52.71
2023-01-19T02:39:36.583Z,52.47
2023-01-19T02:40:39.978Z,53.25
2023-01-19T02:41:44.577Z,53.23
2023-01-19T02:42:49.888Z,53.06
2023-01-19T02:43:52.928Z,53.37
2023-01-19T02:44:57.145Z,53.44
2023-01-19T02:45:58.999Z,53.42
2023-01-19T02:47:01.751Z,52.98
2023-01-19T02:48:05.460Z,53.07
2023-01-19T02:49:08.108Z,53.12
2023-01-19T02:50:28.661Z,52.99
2023-01-19T02:51:32.261Z,53.23
2023-01-19T02:52:34.116Z,52.81
2023-01-19T02:54:04.740Z,52.80
2023-01-19T02:55:13.377Z,52.97
2023-01-19T02:56:47.215Z,53.23
2023-01-19T02:57:55.032Z,52.97
2023-01-19T02:59:02.933Z,53.19
2023-01-19T03:00:17.586Z,53.12
2023-01-19T03:01:27.061Z,53.31
2023-01-19T03:02:36.194Z,53.17
2023-01-19T03:03:46.260Z,53.23
2023-01-19T03:04:57.743Z,53.29
2023-01-19T03:06:05.228Z,53.08
2023-01-19T03:07:10.436Z,52.91
2023-01-19T03:08:17.321Z,53.37
2023-01-19T03:09:26.593Z,53.60
2023-01-19T03:10:32.811Z,53.39
2023-01-19T03:11:40.336Z,53.59
2023-01-19T03:12:45.292Z,53.60
2023-01-19T03:13:50.576Z,53.49
2023-01-19T03:14:57.872Z,53.58
2023-01-19T03:16:04.838Z,53.51
2023-01-19T03:17:07.830Z,53.84
2023-01-19T03:18:12.622Z,54.03
2023-01-19T03:19:19.179Z,53.93
2023-01-19T03:20:24.678Z,54.22
2023-01-19T03:21:28.001Z,54.10
2023-01-19T03:22:30.915Z,54.28
2023-01-19T03:23:34.200Z,54.21
2023-01-19T03:24:40.059Z,54.01
2023-01-19T03:25:44.602Z,54.26
2023-01-19T03:26:50.439Z,54.32
2023-01-19T03:27:54.164Z,54.20
2023-01-19T03:28:57.700Z,54.22
2023-01-19T03:30:01.416Z,54.53
2023-01-19T03:31:07.521Z,54.59
2023-01-19T03:32:12.569Z,54.84
2023-01-19T03:33:17.572Z,54.78
2023-01-19T03:34:22.185Z,54.83
2023-01-19T03:35:25.972Z,54.80
2023-01-19T03:36:31.859Z,54.63
2023-01-19T03:37:35.360Z,55.15
2023-01-19T03:38:38.420Z,54.55
2023-01-19T03:39:41.906Z,55.26
2023-01-19T03:40:45.766Z,55.33
2023-01-19T03:41:49.790Z,55.53
2023-01-19T03:42:51.777Z,55.49
2023-01-19T03:43:55.508Z,55.59
2023-01-19T03:44:58.120Z,55.47
2023-01-19T03:46:01.955Z,55.29
2023-01-19T03:47:05.103Z,55.52
2023-01-19T03:48:08.368Z,55.50
2023-01-19T03:49:10.228Z,55.28
2023-01-19T03:50:15.786Z,55.13
2023-01-19T03:51:19.398Z,55.05
2023-01-19T03:52:28.999Z,55.24
2023-01-19T03:53:30.747Z,55.86
2023-01-19T03:54:33.573Z,55.75
2023-01-19T03:55:36.001Z,55.78
2023-01-19T03:56:40.082Z,55.70
2023-01-19T03:57:41.847Z,56.15
2023-01-19T03:58:44.559Z,55.62
2023-01-19T03:59:46.297Z,55.87
2023-01-19T04:00:49.020Z,55.85
2023-01-19T04:01:50.750Z,55.80
2023-01-19T04:02:53.609Z,55.83
2023-01-19T04:03:55.397Z,55.83
2023-01-19T04:04:58.107Z,55.77
2023-01-19T04:05:59.810Z,56.02
2023-01-19T04:07:02.524Z,55.94
2023-01-19T04:08:04.281Z,55.76
2023-01-19T04:09:07.083Z,55.79
2023-01-19T04:10:12.673Z,55.50
2023-01-19T04:11:15.440Z,55.68
2023-01-19T04:12:18.683Z,55.69
2023-01-19T04:13:21.377Z,55.95
2023-01-19T04:14:23.136Z,55.78
2023-01-19T04:15:25.915Z,55.69
2023-01-19T04:16:27.569Z,55.96
2023-01-19T04:17:30.269Z,55.83
2023-01-19T04:18:34.693Z,55.88
2023-01-19T04:19:37.761Z,55.59
2023-01-19T04:20:39.594Z,55.85
2023-01-19T04:21:42.303Z,55.82
2023-01-19T04:22:44.027Z,55.58
2023-01-19T04:23:47.098Z,55.74
2023-01-19T04:24:48.812Z,55.68
2023-01-19T04:25:51.560Z,55.75
2023-01-19T04:26:53.528Z,55.61
2023-01-19T04:27:58.675Z,55.64
2023-01-19T04:29:00.560Z,55.84
2023-01-19T04:30:03.778Z,55.30
2023-01-19T04:31:06.627Z,55.56
2023-01-19T04:32:09.345Z,55.92
2023-01-19T04:33:11.049Z,55.57
2023-01-19T04:34:13.769Z,55.90
2023-01-19T04:35:16.878Z,55.83
2023-01-19T04:36:19.638Z,55.77
2023-01-19T04:37:21.561Z,55.90
2023-01-19T04:38:24.619Z,55.74
2023-01-19T04:39:27.464Z,55.92
2023-01-19T04:40:30.156Z,56.21
2023-01-19T04:41:32.852Z,55.99
2023-01-19T04:42:34.803Z,56.13
2023-01-19T04:43:38.966Z,55.79
2023-01-19T04:44:40.706Z,55.93
2023-01-19T04:45:44.756Z,56.27
2023-01-19T04:46:46.573Z,55.66
2023-01-19T04:47:49.259Z,55.65
2023-01-19T04:48:50.989Z,56.16
2023-01-19T04:49:53.698Z,55.72
2023-01-19T04:50:55.328Z,55.45
2023-01-19T04:51:58.171Z,55.67
2023-01-19T04:53:01.122Z,55.95
2023-01-19T04:54:04.262Z,55.89
2023-01-19T04:55:07.463Z,56.13
2023-01-19T04:56:10.684Z,56.26
2023-01-19T04:57:12.374Z,55.76
2023-01-19T04:58:15.792Z,55.77
2023-01-19T04:59:20.425Z,56.10
2023-01-19T05:00:23.538Z,56.18
2023-01-19T05:01:25.313Z,56.50
2023-01-19T05:02:28.164Z,56.63
2023-01-19T05:03:30.039Z,56.72
2023-01-19T05:04:32.778Z,56.75
2023-01-19T05:05:34.571Z,56.80
2023-01-19T05:06:37.297Z,57.14
2023-01-19T05:07:39.158Z,56.61
2023-01-19T05:08:43.382Z,56.72
2023-01-19T05:09:46.276Z,56.52
2023-01-19T05:10:49.450Z,56.65
2023-01-19T05:11:51.181Z,56.67
2023-01-19T05:12:53.882Z,56.96
2023-01-19T05:13:55.528Z,57.11
2023-01-19T05:14:59.611Z,57.03
2023-01-19T05:16:01.815Z,57.03
2023-01-19T05:17:04.776Z,56.97
2023-01-19T05:18:06.509Z,56.86
2023-01-19T05:19:09.302Z,57.14
2023-01-19T05:20:14.958Z,57.21
2023-01-19T05:21:18.655Z,56.52
2023-01-19T05:22:20.575Z,56.69
2023-01-19T05:23:23.213Z,56.81
2023-01-19T05:24:24.968Z,56.72
2023-01-19T05:25:27.731Z,57.26
2023-01-19T05:26:29.434Z,56.93
2023-01-19T05:27:32.177Z,56.62
2023-01-19T05:28:34.271Z,56.64
2023-01-19T05:29:37.094Z,56.51
2023-01-19T05:30:40.267Z,56.33
2023-01-19T05:31:43.088Z,56.27
2023-01-19T05:32:44.838Z,56.59
2023-01-19T05:33:48.246Z,56.18
2023-01-19T05:34:51.019Z,56.58
2023-01-19T05:35:53.022Z,56.49
2023-01-19T05:36:55.709Z,56.37
2023-01-19T05:37:57.387Z,55.72
2023-01-19T05:39:00.313Z,56.02
2023-01-19T05:40:02.198Z,56.34
2023-01-19T05:41:04.921Z,56.33
2023-01-19T05:42:06.621Z,56.34
2023-01-19T05:43:09.286Z,55.51
2023-01-19T05:44:11.385Z,56.05
2023-01-19T05:45:14.288Z,56.32
2023-01-19T05:46:17.352Z,55.61
2023-01-19T05:47:20.109Z,55.68
2023-01-19T05:48:21.980Z,55.43
2023-01-19T05:49:24.691Z,56.33
2023-01-19T05:50:26.382Z,56.28
2023-01-19T05:51:34.879Z,55.71
2023-01-19T05:52:37.615Z,56.04
2023-01-19T05:53:39.482Z,56.07
2023-01-19T05:54:42.184Z,56.05
2023-01-19T05:55:43.970Z,55.68
2023-01-19T05:56:46.785Z,56.17
2023-01-19T05:57:48.438Z,55.27
2023-01-19T05:58:51.072Z,55.52
2023-01-19T05:59:52.849Z,55.17
2023-01-19T06:00:55.724Z,55.04
2023-01-19T06:01:59.925Z,54.88
2023-01-19T06:03:03.181Z,55.82
2023-01-19T06:04:05.726Z,55.90
2023-01-19T06:05:09.059Z,55.80
2023-01-19T06:06:11.541Z,55.50
2023-01-19T06:07:14.202Z,55.10
2023-01-19T06:08:15.928Z,55.35
2023-01-19T06:09:18.644Z,55.46
2023-01-19T06:10:20.321Z,55.01
2023-01-19T06:11:23.017Z,55.63
2023-01-19T06:12:24.961Z,55.09
2023-01-19T06:13:27.603Z,54.85
2023-01-19T06:14:29.272Z,55.34
2023-01-19T06:15:31.909Z,55.42
2023-01-19T06:16:33.735Z,55.88
2023-01-19T06:17:38.030Z,54.98
2023-01-19T06:18:39.868Z,55.36
2023-01-19T06:19:42.875Z,55.74
2023-01-19T06:20:44.753Z,55.25
2023-01-19T06:21:52.032Z,55.16
2023-01-19T06:22:57.723Z,55.40
2023-01-19T06:23:59.418Z,55.71
2023-01-19T06:25:02.508Z,55.93
2023-01-19T06:26:04.425Z,55.45
2023-01-19T06:27:07.070Z,56.21
2023-01-19T06:28:08.761Z,55.61
2023-01-19T06:29:12.186Z,55.89
2023-01-19T06:30:14.597Z,56.00
2023-01-19T06:31:17.399Z,56.02
2023-01-19T06:32:19.185Z,55.81
2023-01-19T06:33:24.109Z,55.87
2023-01-19T06:34:28.708Z,56.06
2023-01-19T06:35:31.413Z,56.27
2023-01-19T06:36:33.170Z,56.17
2023-01-19T06:37:36.792Z,55.55
2023-01-19T06:38:39.572Z,56.01
2023-01-19T06:39:42.288Z,55.74
2023-01-19T06:40:45.843Z,56.40
2023-01-19T06:41:47.621Z,56.47
2023-01-19T06:42:50.287Z,55.99
2023-01-19T06:43:51.976Z,55.74
2023-01-19T06:44:54.675Z,56.11
2023-01-19T06:45:56.774Z,56.10
2023-01-19T06:47:14.921Z,56.02
2023-01-19T06:48:19.104Z,55.75
2023-01-19T06:49:23.118Z,56.01
2023-01-19T06:50:25.939Z,56.39
2023-01-19T06:51:29.075Z,56.34
2023-01-19T06:52:30.801Z,57.11
2023-01-19T06:53:33.958Z,57.50
2023-01-19T06:54:35.653Z,56.70
2023-01-19T06:55:39.242Z,57.33
2023-01-19T06:56:40.961Z,57.28
2023-01-19T06:57:44.419Z,56.82
2023-01-19T06:58:47.072Z,57.26
2023-01-19T06:59:50.019Z,57.12
2023-01-19T07:00:52.874Z,57.15
2023-01-19T07:01:56.143Z,57.16
2023-01-19T07:02:59.385Z,56.84
2023-01-19T07:04:01.890Z,57.10
2023-01-19T07:05:07.468Z,57.05
2023-01-19T07:06:10.248Z,57.20
2023-01-19T07:07:12.012Z,56.44
2023-01-19T07:08:15.670Z,56.76
2023-01-19T07:09:17.785Z,57.11
2023-01-19T07:10:20.728Z,56.59
2023-01-19T07:11:29.590Z,56.82
2023-01-19T07:12:35.569Z,56.11
2023-01-19T07:13:39.921Z,56.55
2023-01-19T07:14:41.677Z,55.84
2023-01-19T07:15:44.356Z,56.70
2023-01-19T07:16:47.514Z,56.49
2023-01-19T07:17:49.332Z,56.18
2023-01-19T07:18:52.011Z,56.62
2023-01-19T07:19:53.781Z,56.38
2023-01-19T07:20:59.976Z,56.84
2023-01-19T07:22:02.277Z,56.71
2023-01-19T07:23:05.556Z,56.39
2023-01-19T07:24:08.447Z,56.67
2023-01-19T07:25:11.311Z,56.78
2023-01-19T07:26:15.308Z,56.81
2023-01-19T07:27:17.055Z,57.05
2023-01-19T07:28:20.571Z,56.42
2023-01-19T07:29:22.337Z,56.78
2023-01-19T07:30:25.117Z,56.70
2023-01-19T07:31:26.868Z,56.35
2023-01-19T07:32:29.818Z,56.40
2023-01-19T07:33:33.047Z,56.49
2023-01-19T07:34:34.875Z,56.76
2023-01-19T07:35:37.588Z,56.54
2023-01-19T07:36:41.846Z,56.47
2023-01-19T07:37:44.505Z,57.03
2023-01-19T07:38:47.447Z,56.35
2023-01-19T07:39:50.135Z,56.68
2023-01-19T07:40:52.823Z,56.89
2023-01-19T07:41:54.558Z,57.04
2023-01-19T07:42:57.212Z,57.05
2023-01-19T07:43:58.968Z,56.25
2023-01-19T07:45:01.854Z,56.57
2023-01-19T07:46:06.003Z,56.42
2023-01-19T07:47:11.248Z,56.50
2023-01-19T07:48:13.971Z,56.76
2023-01-19T07:49:16.607Z,56.42
2023-01-19T07:50:24.469Z,56.35
2023-01-19T07:51:27.839Z,56.19
2023-01-19T07:52:32.013Z,56.44
2023-01-19T07:53:33.961Z,56.20
2023-01-19T07:54:36.676Z,56.56
2023-01-19T07:55:39.375Z,56.64
2023-01-19T07:56:41.173Z,56.63
2023-01-19T07:57:43.834Z,56.67
2023-01-19T07:58:46.840Z,56.39
2023-01-19T07:59:49.615Z,56.70
2023-01-19T08:00:51.561Z,56.20
2023-01-19T08:01:54.438Z,56.49
2023-01-19T08:02:59.924Z,56.31
2023-01-19T08:04:02.847Z,56.23
2023-01-19T08:05:05.048Z,56.49
2023-01-19T08:06:08.363Z,56.58
2023-01-19T08:07:10.231Z,56.68
2023-01-19T08:08:14.379Z,56.23
2023-01-19T08:09:16.125Z,56.80
2023-01-19T08:10:18.887Z,56.39
2023-01-19T08:11:20.608Z,56.51
2023-01-19T08:12:23.337Z,57.00
2023-01-19T08:13:26.209Z,56.71
2023-01-19T08:14:27.941Z,56.83
2023-01-19T08:15:30.767Z,56.24
2023-01-19T08:16:32.752Z,56.47
2023-01-19T08:17:35.459Z,56.14
2023-01-19T08:18:38.150Z,56.77
2023-01-19T08:19:41.637Z,56.47
2023-01-19T08:20:43.432Z,57.03
2023-01-19T08:21:46.458Z,56.75
2023-01-19T08:22:48.185Z,56.17
2023-01-19T08:23:56.067Z,56.17
2023-01-19T08:24:57.771Z,56.83
2023-01-19T08:26:00.503Z,56.55
2023-01-19T08:27:04.000Z,56.61
2023-01-19T08:28:08.091Z,56.25
2023-01-19T08:29:09.965Z,56.42
2023-01-19T08:30:13.298Z,56.06
2023-01-19T08:31:21.021Z,56.05
2023-01-19T08:32:25.172Z,56.24
2023-01-19T08:33:26.897Z,55.69
2023-01-19T08:34:30.890Z,56.15
2023-01-19T08:35:33.732Z,55.88
2023-01-19T08:36:36.513Z,55.78
2023-01-19T08:37:38.198Z,55.37
2023-01-19T08:38:43.624Z,55.75
2023-01-19T08:39:47.665Z,55.31
2023-01-19T08:40:49.479Z,54.96
2023-01-19T08:41:52.527Z,55.02
2023-01-19T08:43:01.032Z,54.91
2023-01-19T08:44:02.939Z,55.05
2023-01-19T08:45:06.552Z,54.89
2023-01-19T08:46:08.438Z,54.39
2023-01-19T08:47:11.303Z,54.53
2023-01-19T08:48:13.498Z,53.96
2023-01-19T08:49:17.128Z,54.10
2023-01-19T08:50:18.798Z,54.16
2023-01-19T08:51:21.750Z,53.41
2023-01-19T08:52:24.738Z,54.39
2023-01-19T08:53:27.405Z,53.77
2023-01-19T08:54:29.148Z,53.55
2023-01-19T08:55:34.728Z,53.40
2023-01-19T08:56:37.446Z,53.92
2023-01-19T08:57:39.143Z,53.61
2023-01-19T08:58:42.861Z,52.86
2023-01-19T08:59:47.465Z,53.08
2023-01-19T09:00:52.578Z,53.02
2023-01-19T09:01:55.416Z,53.06
2023-01-19T09:02:57.651Z,52.94
2023-01-19T09:04:00.305Z,52.42
2023-01-19T09:05:04.530Z,53.05
2023-01-19T09:06:07.750Z,51.92
2023-01-19T09:07:09.427Z,52.75
2023-01-19T09:08:14.073Z,52.47
2023-01-19T09:09:16.741Z,52.43
2023-01-19T09:10:19.012Z,51.98
2023-01-19T09:11:23.130Z,52.20
2023-01-19T09:12:24.943Z,52.21
2023-01-19T09:13:27.647Z,51.59
2023-01-19T09:14:29.469Z,52.22
2023-01-19T09:15:33.950Z,51.97
2023-01-19T09:16:36.743Z,52.06
2023-01-19T09:17:38.465Z,51.48
2023-01-19T09:18:41.288Z,51.27
2023-01-19T09:19:43.028Z,51.55
2023-01-19T09:20:47.896Z,51.48
2023-01-19T09:21:50.807Z,51.31
2023-01-19T09:22:52.498Z,51.64
2023-01-19T09:23:55.684Z,50.88
2023-01-19T09:24:57.337Z,50.97
2023-01-19T09:26:02.000Z,50.88
2023-01-19T09:27:05.161Z,50.82
2023-01-19T09:28:09.255Z,50.97
2023-01-19T09:29:12.024Z,50.61
2023-01-19T09:30:14.597Z,50.59
2023-01-19T09:31:17.665Z,49.99
2023-01-19T09:32:19.885Z,49.90
2023-01-19T09:33:22.698Z,50.36
2023-01-19T09:34:25.580Z,50.32
2023-01-19T09:35:28.287Z,49.82
2023-01-19T09:36:32.443Z,49.87
2023-01-19T09:37:35.138Z,49.25
2023-01-19T09:38:37.465Z,49.61
2023-01-19T09:39:40.255Z,49.33
2023-01-19T09:40:43.727Z,49.29
2023-01-19T09:41:50.400Z,48.93
2023-01-19T09:42:56.915Z,49.02
2023-01-19T09:44:01.111Z,48.82
2023-01-19T09:45:06.252Z,49.00
2023-01-19T09:46:12.698Z,49.28
2023-01-19T09:47:17.224Z,49.06
2023-01-19T09:48:31.189Z,48.90
2023-01-19T09:49:38.017Z,48.62
2023-01-19T09:50:46.644Z,48.66
2023-01-19T09:51:50.602Z,49.01
2023-01-19T09:52:56.447Z,49.09
2023-01-19T09:54:06.330Z,48.64
2023-01-19T09:55:12.105Z,48.92
2023-01-19T09:56:15.663Z,48.77
2023-01-19T09:57:18.362Z,48.83
2023-01-19T09:58:22.625Z,48.38
2023-01-19T09:59:26.780Z,48.05
2023-01-19T10:00:29.701Z,48.14
2023-01-19T10:01:48.075Z,47.84
2023-01-19T10:02:54.572Z,47.94
2023-01-19T10:04:29.920Z,47.75
2023-01-19T10:05:35.088Z,47.86
2023-01-19T10:06:36.899Z,47.70
2023-01-19T10:08:06.106Z,47.70
2023-01-19T10:09:14.585Z,47.71
2023-01-19T10:10:21.417Z,47.45
2023-01-19T10:11:42.010Z,47.37
2023-01-19T10:12:55.608Z,47.45
2023-01-19T10:14:00.109Z,47.93
2023-01-19T10:15:07.031Z,48.05
2023-01-19T10:16:31.591Z,47.89
2023-01-19T10:17:39.990Z,47.92
2023-01-19T10:18:47.951Z,47.69
2023-01-19T10:19:51.819Z,47.91
2023-01-19T10:20:57.723Z,47.52
2023-01-19T10:22:01.016Z,47.29
2023-01-19T10:23:06.225Z,47.12
2023-01-19T10:24:16.059Z,47.26
2023-01-19T10:25:20.311Z,47.31
2023-01-19T10:26:25.169Z,47.21
2023-01-19T10:27:28.745Z,47.25
2023-01-19T10:28:32.125Z,47.08
2023-01-19T10:29:39.284Z,46.78
2023-01-19T10:30:42.860Z,47.26
2023-01-19T10:31:47.476Z,47.11
2023-01-19T10:32:50.612Z,47.42
2023-01-19T10:33:54.149Z,47.42
2023-01-19T10:34:58.452Z,47.29
2023-01-19T10:36:05.171Z,47.47
2023-01-19T10:37:17.594Z,47.17
2023-01-19T10:38:22.215Z,47.68
2023-01-19T10:39:25.061Z,47.46
2023-01-19T10:40:31.187Z,47.70
2023-01-19T10:41:41.411Z,48.10
2023-01-19T10:42:43.073Z,47.65
2023-01-19T10:43:46.741Z,48.57
2023-01-19T10:44:51.000Z,48.24
2023-01-19T10:45:52.767Z,48.26
2023-01-19T10:46:56.930Z,48.34
2023-01-19T10:48:00.878Z,48.41
2023-01-19T10:49:03.888Z,48.63
2023-01-19T10:50:23.955Z,48.79
2023-01-19T10:51:27.034Z,49.01
2023-01-19T10:52:31.495Z,49.04
2023-01-19T10:53:34.368Z,48.97
2023-01-19T10:54:38.083Z,49.13
2023-01-19T10:55:40.492Z,49.81
2023-01-19T10:56:43.481Z,49.53
2023-01-19T10:57:48.870Z,49.38
2023-01-19T10:58:50.646Z,50.29
2023-01-19T10:59:54.721Z,50.04
2023-01-19T11:01:13.494Z,49.81
2023-01-19T11:02:19.365Z,50.10
2023-01-19T11:03:24.082Z,50.33
2023-01-19T11:04:30.336Z,50.58
2023-01-19T11:05:36.624Z,50.07
2023-01-19T11:06:38.371Z,50.59
2023-01-19T11:07:41.015Z,51.22
2023-01-19T11:08:44.139Z,51.05
2023-01-19T11:09:46.994Z,51.04
2023-01-19T11:10:52.808Z,51.50
2023-01-19T11:11:56.843Z,52.12
2023-01-19T11:13:02.355Z,51.32
2023-01-19T11:14:10.244Z,52.32
2023-01-19T11:15:22.991Z,52.36
2023-01-19T11:16:28.550Z,52.25
2023-01-19T11:17:31.281Z,52.87
2023-01-19T11:18:34.733Z,53.16
2023-01-19T11:19:37.427Z,53.32
2023-01-19T11:20:49.279Z,52.64
2023-01-19T11:21:52.047Z,52.65
2023-01-19T11:23:06.173Z,53.25
2023-01-19T11:24:13.310Z,53.52
2023-01-19T11:25:31.544Z,52.94
2023-01-19T11:26:34.690Z,53.01
2023-01-19T11:27:38.196Z,53.20
2023-01-19T11:28:45.059Z,53.68
2023-01-19T11:29:49.569Z,53.82
2023-01-19T11:30:56.915Z,53.59
2023-01-19T11:32:11.819Z,54.41
2023-01-19T11:33:25.201Z,54.43
2023-01-19T11:34:32.917Z,54.17
2023-01-19T11:35:37.704Z,54.69
2023-01-19T11:36:40.503Z,54.28
2023-01-19T11:37:43.275Z,54.50
2023-01-19T11:38:46.336Z,55.04
2023-01-19T11:39:50.534Z,54.88
2023-01-19T11:40:56.294Z,54.23
2023-01-19T11:41:59.551Z,54.79
2023-01-19T11:43:02.610Z,54.22
2023-01-19T11:44:15.112Z,54.58
2023-01-19T11:45:18.325Z,55.50
2023-01-19T11:46:23.993Z,55.13
2023-01-19T11:47:28.289Z,55.27
2023-01-19T11:48:34.774Z,54.78
2023-01-19T11:49:42.535Z,55.33
2023-01-19T11:50:46.410Z,55.15
2023-01-19T11:51:53.354Z,54.88
2023-01-19T11:53:00.446Z,55.68
2023-01-19T11:54:04.335Z,55.05
2023-01-19T11:55:12.069Z,55.50
2023-01-19T11:56:14.771Z,55.32
2023-01-19T11:57:18.076Z,55.82
2023-01-19T11:58:20.957Z,55.55
2023-01-19T11:59:24.893Z,56.36
2023-01-19T12:00:35.573Z,55.89
2023-01-19T12:01:45.035Z,55.78
2023-01-19T12:02:48.802Z,56.32
2023-01-19T12:03:56.417Z,56.42
2023-01-19T12:05:01.566Z,56.26
2023-01-19T12:06:05.840Z,56.51
2023-01-19T12:07:10.617Z,55.64
2023-01-19T12:08:15.825Z,55.75
2023-01-19T12:09:21.060Z,55.41
2023-01-19T12:10:27.157Z,55.24
2023-01-19T12:11:33.758Z,55.37
2023-01-19T12:12:38.355Z,55.34
2023-01-19T12:13:41.685Z,55.23
2023-01-19T12:14:48.865Z,55.80
2023-01-19T12:15:54.510Z,55.14
2023-01-19T12:17:01.564Z,54.72
2023-01-19T12:18:05.186Z,55.39
2023-01-19T12:19:14.469Z,55.07
2023-01-19T12:20:26.019Z,55.25
2023-01-19T12:21:28.787Z,54.51
2023-01-19T12:22:36.354Z,54.90
2023-01-19T12:23:45.723Z,55.57
2023-01-19T12:24:53.263Z,55.33
2023-01-19T12:26:06.390Z,55.04
2023-01-19T12:27:14.795Z,55.09
2023-01-19T12:28:18.307Z,54.85
2023-01-19T12:29:22.793Z,54.67
2023-01-19T12:30:28.017Z,55.10
2023-01-19T12:31:29.958Z,55.29
2023-01-19T12:32:37.431Z,54.75
2023-01-19T12:33:40.316Z,54.49
2023-01-19T12:34:44.198Z,54.72
2023-01-19T12:35:57.236Z,55.29
2023-01-19T12:37:04.886Z,55.35
2023-01-19T12:38:25.030Z,54.84
2023-01-19T12:39:30.745Z,55.01
2023-01-19T12:40:35.377Z,55.00
2023-01-19T12:41:39.630Z,54.99
2023-01-19T12:42:44.635Z,55.32
2023-01-19T12:43:47.899Z,55.11
2023-01-19T12:44:52.624Z,54.90
2023-01-19T12:45:54.386Z,55.29
2023-01-19T12:47:03.406Z,55.29
2023-01-19T12:48:21.599Z,54.94
2023-01-19T12:49:28.490Z,55.44
2023-01-19T12:50:34.346Z,54.88
2023-01-19T12:51:36.074Z,55.29
2023-01-19T12:52:41.563Z,55.00
2023-01-19T12:53:51.732Z,55.50
2023-01-19T12:55:01.463Z,55.38
2023-01-19T12:56:06.504Z,55.00
2023-01-19T12:57:09.737Z,54.98
2023-01-19T12:58:17.690Z,54.89
2023-01-19T12:59:24.243Z,55.11
2023-01-19T13:00:33.178Z,55.30
2023-01-19T13:01:35.992Z,54.99
2023-01-19T13:02:43.473Z,55.59
2023-01-19T13:04:00.733Z,55.20
2023-01-19T13:05:13.699Z,55.89
2023-01-19T13:06:16.529Z,55.21
2023-01-19T13:07:19.687Z,55.09
2023-01-19T13:08:31.252Z,55.50
2023-01-19T13:09:35.372Z,55.05
2023-01-19T13:11:15.478Z,55.19
2023-01-19T13:12:22.827Z,55.17
2023-01-19T13:13:25.768Z,55.69
2023-01-19T13:14:36.569Z,55.92
2023-01-19T13:15:39.560Z,56.09
2023-01-19T13:17:00.153Z,55.70
2023-01-19T13:18:03.201Z,55.83
2023-01-19T13:19:16.265Z,56.12
2023-01-19T13:20:28.986Z,55.72
2023-01-19T13:21:32.938Z,55.97
2023-01-19T13:23:17.059Z,56.53
2023-01-19T13:24:22.374Z,55.93
2023-01-19T13:25:30.942Z,56.72
2023-01-19T13:26:35.225Z,56.11
2023-01-19T13:27:37.665Z,56.53
2023-01-19T13:28:43.791Z,56.33
2023-01-19T13:29:45.707Z,56.23
2023-01-19T13:30:56.452Z,55.94
2023-01-19T13:32:03.346Z,56.27
2023-01-19T13:33:10.491Z,56.20
2023-01-19T13:34:16.233Z,55.89
2023-01-19T13:35:19.269Z,56.07
2023-01-19T13:36:26.592Z,56.30
2023-01-19T13:37:37.913Z,56.32
2023-01-19T13:38:42.513Z,56.66
2023-01-19T13:39:49.923Z,57.00
2023-01-19T13:40:53.506Z,56.72
2023-01-19T13:41:57.407Z,56.60
2023-01-19T13:42:59.322Z,56.54
2023-01-19T13:44:03.867Z,56.47
2023-01-19T13:45:16.914Z,56.75
2023-01-19T13:46:20.007Z,56.08
2023-01-19T13:47:23.472Z,57.28
2023-01-19T13:48:26.616Z,56.67
2023-01-19T13:49:32.625Z,56.29
2023-01-19T13:50:35.924Z,56.47
2023-01-19T13:51:38.652Z,56.91
2023-01-19T13:52:44.472Z,56.57
2023-01-19T13:53:54.779Z,56.31